Time;durP1;ratioP1;P1;durP2;ratioP2;P2;SDS_P1;SDS_P2;PMS_P1;PMS_P2;Temp;Humidity;BMP_temperature;BMP_pressure;BME280_temperature;BME280_humidity;BME280_pressure;Samples;Min_cycle;Max_cycle;Signal;HPM_P1;HPM_P2
2022/01/19 00:00:34;;;;;;;19.52;8.88;;;;;11.80;103071.00;;;;5024754;28;20200;-81
2022/01/19 00:03:03;;;;;;;16.70;8.95;;;;;11.70;103064.00;;;;5019182;28;20204;-81
2022/01/19 00:05:30;;;;;;;16.60;8.43;;;;;11.60;103064.00;;;;5021475;28;20607;-80
2022/01/19 00:07:58;;;;;;;20.35;9.05;;;;;11.60;103059.00;;;;5027068;28;20196;-81
2022/01/19 00:10:27;;;;;;;20.70;8.75;;;;;11.60;103063.00;;;;5029963;28;20201;-81
2022/01/19 00:12:55;;;;;;;19.95;8.90;;;;;11.50;103070.00;;;;5023031;28;20323;-81
2022/01/19 00:15:23;;;;;;;16.92;8.05;;;;;11.40;103076.00;;;;5009755;28;20731;-82
2022/01/19 00:17:54;;;;;;;17.70;8.02;;;;;11.40;103069.00;;;;5010430;28;20201;-80
2022/01/19 00:20:24;;;;;;;20.92;8.27;;;;;11.30;103069.00;;;;5024557;28;20316;-81
2022/01/19 00:22:53;;;;;;;17.45;8.65;;;;;11.30;103074.00;;;;5017549;28;20192;-81
2022/01/19 00:25:21;;;;;;;18.30;9.43;;;;;11.20;103074.00;;;;5019797;28;20287;-81
2022/01/19 00:27:48;;;;;;;17.15;7.70;;;;;11.20;103066.00;;;;5009406;28;20197;-80
2022/01/19 00:30:16;;;;;;;13.77;7.63;;;;;11.10;103046.00;;;;5009552;28;20197;-81
2022/01/19 00:32:43;;;;;;;17.27;7.75;;;;;11.10;103032.00;;;;5021631;28;20200;-81
2022/01/19 00:35:12;;;;;;;15.90;8.02;;;;;11.00;103000.00;;;;5029612;28;20200;-81
2022/01/19 00:37:42;;;;;;;17.75;8.07;;;;;10.90;102988.00;;;;5016725;28;20208;-81
2022/01/19 00:40:13;;;;;;;15.95;7.38;;;;;10.90;102972.00;;;;5017816;28;20197;-81
2022/01/19 00:42:41;;;;;;;16.98;7.95;;;;;10.80;102961.00;;;;5014551;28;20491;-81
2022/01/19 00:45:09;;;;;;;16.70;7.75;;;;;10.80;102955.00;;;;5009745;28;20212;-81
2022/01/19 00:47:37;;;;;;;15.85;7.75;;;;;10.70;102950.00;;;;5009657;28;20201;-81
2022/01/19 00:50:06;;;;;;;18.77;7.93;;;;;10.70;102954.00;;;;5009843;28;20200;-81
2022/01/19 00:52:35;;;;;;;15.13;6.70;;;;;10.60;102951.00;;;;5016260;28;20193;-81
2022/01/19 00:55:05;;;;;;;14.65;7.78;;;;;10.60;102954.00;;;;5029238;28;20206;-81
2022/01/19 00:57:32;;;;;;;18.20;8.30;;;;;10.50;102959.00;;;;5015039;28;20208;-81
2022/01/19 01:00:00;;;;;;;12.75;7.43;;;;;10.50;102964.00;;;;5019308;28;20208;-81
2022/01/19 01:02:27;;;;;;;15.43;6.45;;;;;10.40;102969.00;;;;5028628;28;20204;-81
2022/01/19 01:04:54;;;;;;;15.27;7.88;;;;;10.40;102969.00;;;;5028928;28;20212;-82
2022/01/19 01:07:21;;;;;;;14.95;7.07;;;;;10.30;102960.00;;;;5023315;28;20228;-81
2022/01/19 01:09:49;;;;;;;15.80;7.07;;;;;10.30;102953.00;;;;5015753;28;20198;-81
2022/01/19 01:12:23;;;;;;;17.83;8.73;;;;;10.20;102953.00;;;;5011466;28;20212;-81
2022/01/19 01:20:22;;;;;;;15.13;7.05;;;;;10.10;102942.00;;;;5009609;28;20298;-80
2022/01/19 01:22:49;;;;;;;12.50;6.18;;;;;10.10;102927.00;;;;5021420;28;20594;-81
2022/01/19 01:25:17;;;;;;;13.88;7.45;;;;;10.00;102922.00;;;;5019800;28;20201;-81
2022/01/19 01:27:45;;;;;;;15.65;7.80;;;;;10.00;102906.00;;;;5008750;28;20640;-82
2022/01/19 01:30:13;;;;;;;15.68;7.15;;;;;10.00;102903.00;;;;5009482;28;20578;-82
2022/01/19 01:32:40;;;;;;;17.35;7.35;;;;;9.90;102896.00;;;;5012626;28;20211;-82
2022/01/19 01:35:09;;;;;;;14.95;7.20;;;;;9.90;102878.00;;;;5021810;28;20197;-82
2022/01/19 01:37:36;;;;;;;19.95;7.95;;;;;9.90;102875.00;;;;5017411;28;20201;-82
2022/01/19 01:40:04;;;;;;;18.42;8.40;;;;;9.80;102866.00;;;;5028155;28;20204;-82
2022/01/19 01:42:33;;;;;;;14.07;7.28;;;;;9.80;102851.00;;;;5025844;28;20556;-82
2022/01/19 01:45:02;;;;;;;13.25;7.30;;;;;9.70;102841.00;;;;5009022;28;20210;-82
2022/01/19 01:47:32;;;;;;;13.45;7.63;;;;;9.70;102830.00;;;;5008945;28;20229;-82
2022/01/19 01:55:29;;;;;;;14.75;7.72;;;;;9.60;102844.00;;;;5008953;28;20239;-82
2022/01/19 01:57:57;;;;;;;12.68;6.57;;;;;9.50;102848.00;;;;5012642;28;20200;-82
2022/01/19 02:00:26;;;;;;;11.55;6.32;;;;;9.50;102846.00;;;;5020814;28;20221;-82
2022/01/19 02:02:54;;;;;;;12.27;6.53;;;;;9.50;102837.00;;;;5024120;28;20201;-82
2022/01/19 02:05:23;;;;;;;13.63;6.65;;;;;9.40;102838.00;;;;5027590;28;20219;-82
2022/01/19 02:08:01;;;;;;;12.05;5.95;;;;;9.40;102829.00;;;;5025583;28;20278;-82
2022/01/19 02:10:37;;;;;;;11.30;6.57;;;;;9.30;102810.00;;;;5019655;28;20204;-82
2022/01/19 02:16:15;;;;;;;11.88;6.45;;;;;9.20;102790.00;;;;5014253;28;20223;-82
2022/01/19 02:21:43;;;;;;;10.20;6.40;;;;;9.20;102784.00;;;;5021565;28;20243;-82
2022/01/19 02:24:13;;;;;;;10.85;6.65;;;;;9.20;102778.00;;;;5021997;28;20287;-82
2022/01/19 02:26:53;;;;;;;11.20;5.85;;;;;9.10;102773.00;;;;5007821;28;20846;-82
2022/01/19 02:30:00;;;;;;;13.05;6.43;;;;;9.10;102761.00;;;;5010507;28;20278;-82
2022/01/19 02:40:39;;;;;;;11.60;6.03;;;;;9.00;102741.00;;;;5021513;28;20254;-82
2022/01/19 02:43:09;;;;;;;8.48;5.32;;;;;9.00;102733.00;;;;5011384;28;20205;-81
2022/01/19 02:51:23;;;;;;;11.15;5.85;;;;;8.90;102717.00;;;;5016098;28;20721;-82
2022/01/19 02:53:52;;;;;;;11.95;6.32;;;;;8.80;102717.00;;;;5009812;28;20197;-82
2022/01/19 02:56:24;;;;;;;12.43;6.85;;;;;8.80;102709.00;;;;5011290;28;20201;-82
2022/01/19 02:58:58;;;;;;;10.93;6.55;;;;;8.80;102695.00;;;;5011282;28;20205;-82
2022/01/19 03:09:40;;;;;;;13.75;6.50;;;;;8.70;102693.00;;;;5013781;28;20204;-82
2022/01/19 03:12:09;;;;;;;11.65;6.38;;;;;8.60;102679.00;;;;5011934;28;20228;-83
2022/01/19 03:14:36;;;;;;;12.02;7.30;;;;;8.60;102675.00;;;;5015108;28;20211;-82
2022/01/19 03:17:04;;;;;;;14.50;6.53;;;;;8.60;102674.00;;;;5023408;28;20686;-82
2022/01/19 03:19:32;;;;;;;16.48;7.05;;;;;8.60;102682.00;;;;5029623;28;20200;-83
2022/01/19 03:21:59;;;;;;;14.07;7.85;;;;;8.60;102669.00;;;;5027384;28;20192;-82
2022/01/19 03:24:27;;;;;;;15.00;7.68;;;;;8.60;102670.00;;;;5031012;28;20211;-82
2022/01/19 03:26:55;;;;;;;13.60;7.43;;;;;8.50;102664.00;;;;5031330;28;20224;-82
2022/01/19 03:29:22;;;;;;;13.73;8.07;;;;;8.50;102656.00;;;;5013713;28;20204;-82
2022/01/19 03:31:50;;;;;;;15.65;7.53;;;;;8.50;102652.00;;;;5020427;28;20659;-82
2022/01/19 03:34:17;;;;;;;12.20;6.63;;;;;8.50;102643.00;;;;5013048;28;20201;-81
2022/01/19 03:36:44;;;;;;;12.15;7.30;;;;;8.50;102623.00;;;;5010997;28;20201;-81
2022/01/19 03:39:11;;;;;;;19.50;7.97;;;;;8.50;102604.00;;;;5024831;28;20200;-80
2022/01/19 03:41:39;;;;;;;14.55;7.72;;;;;8.50;102606.00;;;;5014713;28;20844;-81
2022/01/19 03:44:09;;;;;;;11.70;6.90;;;;;8.40;102604.00;;;;5015412;28;20197;-81
2022/01/19 03:46:43;;;;;;;15.70;7.97;;;;;8.40;102623.00;;;;5010592;28;20225;-82
2022/01/19 03:49:12;;;;;;;15.18;8.50;;;;;8.40;102627.00;;;;5010844;28;20745;-80
2022/01/19 03:51:40;;;;;;;14.45;8.85;;;;;8.40;102625.00;;;;5025427;28;20192;-81
2022/01/19 03:54:07;;;;;;;16.60;8.38;;;;;8.40;102609.00;;;;5013679;28;20212;-81
2022/01/19 03:56:34;;;;;;;15.45;8.23;;;;;8.40;102614.00;;;;5010937;28;20209;-81
2022/01/19 03:59:01;;;;;;;18.17;8.27;;;;;8.40;102603.00;;;;5025103;28;20204;-81
2022/01/19 04:01:30;;;;;;;12.38;7.10;;;;;8.40;102609.00;;;;5021720;28;20200;-81
2022/01/19 04:04:17;;;;;;;13.05;7.85;;;;;8.40;102612.00;;;;5010823;28;20208;-81
2022/01/19 04:07:01;;;;;;;15.45;8.32;;;;;8.40;102596.00;;;;5011366;28;20259;-81
2022/01/19 04:09:30;;;;;;;15.82;8.52;;;;;8.40;102596.00;;;;5011336;28;20224;-81
2022/01/19 04:11:58;;;;;;;14.82;7.53;;;;;8.40;102597.00;;;;5010953;28;20251;-81
2022/01/19 04:14:28;;;;;;;16.52;8.32;;;;;8.40;102586.00;;;;5013435;28;20232;-81
2022/01/19 04:16:59;;;;;;;14.88;8.73;;;;;8.30;102579.00;;;;5010589;28;20197;-81
2022/01/19 04:19:30;;;;;;;13.52;7.78;;;;;8.40;102580.00;;;;5023076;28;20196;-81
2022/01/19 04:22:01;;;;;;;13.48;8.20;;;;;8.40;102579.00;;;;5030187;28;20289;-82
2022/01/19 04:24:29;;;;;;;17.52;9.35;;;;;8.40;102582.00;;;;5010921;28;20208;-80
2022/01/19 04:29:47;;;;;;;15.32;7.95;;;;;8.30;102582.00;;;;5009517;28;20753;-80
2022/01/19 04:32:19;;;;;;;17.10;8.20;;;;;8.30;102587.00;;;;5010459;28;20224;-81
2022/01/19 04:34:48;;;;;;;17.98;7.80;;;;;8.30;102587.00;;;;5023868;28;20774;-81
2022/01/19 04:37:32;;;;;;;14.52;7.88;;;;;8.30;102589.00;;;;5029502;28;20208;-81
2022/01/19 04:48:57;;;;;;;12.05;7.40;;;;;8.30;102583.00;;;;5030385;28;20294;-81
2022/01/19 04:54:31;;;;;;;14.07;7.85;;;;;8.40;102570.00;;;;5010004;28;20196;-81
2022/01/19 05:02:50;;;;;;;15.93;8.70;;;;;8.40;102553.00;;;;5021721;28;20258;-81
2022/01/19 05:05:24;;;;;;;17.35;8.05;;;;;8.40;102545.00;;;;5026345;28;20196;-81
2022/01/19 05:07:59;;;;;;;20.73;8.77;;;;;8.40;102549.00;;;;5014106;28;20231;-81
2022/01/19 05:13:32;;;;;;;13.00;7.70;;;;;8.40;102537.00;;;;4971793;28;20272;-81
2022/01/19 05:16:00;;;;;;;16.15;8.23;;;;;8.40;102538.00;;;;5009347;28;20231;-81
2022/01/19 05:18:27;;;;;;;18.20;9.15;;;;;8.40;102542.00;;;;5015044;28;20682;-81
2022/01/19 05:20:56;;;;;;;20.85;9.65;;;;;8.40;102539.00;;;;5027106;28;20227;-81
2022/01/19 05:23:23;;;;;;;16.60;8.52;;;;;8.40;102545.00;;;;5011658;28;20694;-81
2022/01/19 05:25:51;;;;;;;19.52;9.65;;;;;8.40;102544.00;;;;5009443;28;20204;-81
2022/01/19 05:28:19;;;;;;;21.15;9.85;;;;;8.40;102542.00;;;;5009466;28;20229;-81
2022/01/19 05:30:46;;;;;;;15.45;8.30;;;;;8.50;102542.00;;;;5009689;28;20196;-81
2022/01/19 05:33:13;;;;;;;19.05;9.23;;;;;8.50;102537.00;;;;5009890;28;20204;-81
2022/01/19 05:35:41;;;;;;;16.30;9.27;;;;;8.50;102539.00;;;;5020897;28;20197;-81
2022/01/19 05:38:09;;;;;;;20.80;9.10;;;;;8.60;102536.00;;;;5029532;28;20279;-81
2022/01/19 05:40:37;;;;;;;17.77;8.82;;;;;8.60;102529.00;;;;5016211;28;20204;-81
2022/01/19 05:43:05;;;;;;;16.77;9.00;;;;;8.60;102525.00;;;;5017052;28;20196;-81
2022/01/19 05:45:32;;;;;;;19.75;9.20;;;;;8.70;102518.00;;;;5017990;28;20212;-82
2022/01/19 05:48:00;;;;;;;18.10;9.77;;;;;8.70;102520.00;;;;5011086;28;20585;-81
2022/01/19 05:50:28;;;;;;;18.98;8.88;;;;;8.70;102520.00;;;;5009049;28;20197;-82
2022/01/19 05:52:55;;;;;;;18.65;9.18;;;;;8.80;102515.00;;;;5019603;28;20705;-81
2022/01/19 05:55:24;;;;;;;17.88;9.52;;;;;8.80;102503.00;;;;5018125;28;20207;-82
2022/01/19 05:57:51;;;;;;;17.45;9.80;;;;;8.90;102504.00;;;;5008829;28;20689;-80
2022/01/19 06:00:19;;;;;;;19.88;8.55;;;;;8.90;102501.00;;;;5009759;28;20686;-83
2022/01/19 06:02:46;;;;;;;19.15;9.07;;;;;8.90;102490.00;;;;5008306;28;20212;-82
2022/01/19 06:05:13;;;;;;;17.38;9.05;;;;;9.00;102478.00;;;;5010875;28;20216;-81
2022/01/19 06:07:44;;;;;;;17.02;8.93;;;;;9.00;102481.00;;;;5008113;28;20221;-82
2022/01/19 06:10:42;;;;;;;15.77;9.57;;;;;9.00;102479.00;;;;5017756;28;20193;-82
2022/01/19 06:13:01;;;;;;;16.27;8.20;;;;;9.00;102477.00;;;;5016165;28;20192;-82
2022/01/19 06:15:29;;;;;;;18.40;9.45;;;;;9.10;102479.00;;;;5023385;28;20655;-81
2022/01/19 06:17:56;;;;;;;17.02;8.20;;;;;9.10;102464.00;;;;5025460;28;20214;-80
2022/01/19 06:20:23;;;;;;;17.13;9.13;;;;;9.10;102465.00;;;;5028227;28;20722;-82
2022/01/19 06:22:52;;;;;;;14.02;8.13;;;;;9.20;102459.00;;;;5026322;28;20196;-82
2022/01/19 06:25:19;;;;;;;18.02;8.52;;;;;9.20;102444.00;;;;5026318;28;20258;-81
2022/01/19 06:27:47;;;;;;;16.00;8.20;;;;;9.20;102437.00;;;;5016629;28;20713;-83
2022/01/19 06:30:16;;;;;;;14.65;7.72;;;;;9.20;102434.00;;;;5017418;28;20216;-83
2022/01/19 06:32:43;;;;;;;15.05;8.88;;;;;9.30;102440.00;;;;5018473;28;20203;-83
2022/01/19 06:35:11;;;;;;;15.80;8.75;;;;;9.30;102429.00;;;;5017357;28;20212;-83
2022/01/19 06:37:38;;;;;;;15.35;8.65;;;;;9.30;102427.00;;;;5020081;28;20702;-83
2022/01/19 06:40:07;;;;;;;14.55;6.97;;;;;9.40;102422.00;;;;5015125;28;20197;-83
2022/01/19 06:42:34;;;;;;;15.15;8.50;;;;;9.40;102417.00;;;;5014695;28;20569;-82
2022/01/19 06:45:02;;;;;;;12.27;7.80;;;;;9.40;102415.00;;;;5018820;28;20664;-82
2022/01/19 06:47:32;;;;;;;14.82;8.25;;;;;9.50;102412.00;;;;5013857;28;20205;-81
2022/01/19 06:49:59;;;;;;;13.23;7.63;;;;;9.50;102405.00;;;;5027779;28;20192;-82
2022/01/19 06:52:27;;;;;;;14.40;7.45;;;;;9.50;102411.00;;;;5020620;28;20208;-83
2022/01/19 06:54:54;;;;;;;16.05;8.00;;;;;9.50;102396.00;;;;5023097;28;20200;-81
2022/01/19 06:57:21;;;;;;;13.05;7.85;;;;;9.50;102397.00;;;;5021077;28;20378;-81
2022/01/19 06:59:51;;;;;;;14.05;7.57;;;;;9.60;102395.00;;;;5024186;28;20197;-82
2022/01/19 07:02:18;;;;;;;11.93;7.47;;;;;9.60;102397.00;;;;5024866;28;20201;-81
2022/01/19 07:04:49;;;;;;;11.95;7.25;;;;;9.60;102397.00;;;;5018896;28;20201;-81
2022/01/19 07:07:17;;;;;;;16.08;8.32;;;;;9.60;102398.00;;;;5018545;28;20216;-83
2022/01/19 07:09:45;;;;;;;12.80;7.55;;;;;9.60;102387.00;;;;5006841;28;20205;-83
2022/01/19 07:12:13;;;;;;;12.23;7.75;;;;;9.60;102390.00;;;;5025034;28;20219;-82
2022/01/19 07:14:40;;;;;;;12.50;8.32;;;;;9.60;102387.00;;;;5006755;28;20205;-83
2022/01/19 07:17:08;;;;;;;13.05;7.95;;;;;9.60;102386.00;;;;5008217;28;20208;-83
2022/01/19 07:19:35;;;;;;;12.18;7.82;;;;;9.70;102391.00;;;;5017777;28;20204;-82
2022/01/19 07:22:04;;;;;;;13.65;7.72;;;;;9.70;102388.00;;;;5023141;28;20211;-83
2022/01/19 07:24:32;;;;;;;18.63;9.23;;;;;9.70;102382.00;;;;5027133;28;20197;-82
2022/01/19 07:26:59;;;;;;;14.60;8.27;;;;;9.70;102386.00;;;;5025784;28;20188;-83
2022/01/19 07:29:27;;;;;;;16.65;8.65;;;;;9.70;102383.00;;;;5025302;28;20208;-83
2022/01/19 07:31:56;;;;;;;18.20;9.75;;;;;9.70;102382.00;;;;5010317;28;20201;-83
2022/01/19 07:34:23;;;;;;;16.35;9.52;;;;;9.70;102384.00;;;;5026217;28;20690;-82
2022/01/19 07:36:50;;;;;;;16.80;10.23;;;;;9.80;102373.00;;;;5031057;28;20532;-81
2022/01/19 07:39:19;;;;;;;16.42;9.95;;;;;9.80;102383.00;;;;5012588;28;20197;-81
2022/01/19 07:41:46;;;;;;;17.73;9.60;;;;;9.80;102374.00;;;;5011854;28;20211;-81
2022/01/19 07:44:14;;;;;;;18.20;10.80;;;;;9.80;102372.00;;;;5026752;28;20203;-81
2022/01/19 07:46:41;;;;;;;19.90;10.73;;;;;9.80;102382.00;;;;5030526;28;20203;-81
2022/01/19 07:49:08;;;;;;;21.83;11.35;;;;;9.90;102383.00;;;;5031070;28;20690;-81
2022/01/19 07:51:36;;;;;;;19.30;11.43;;;;;9.90;102387.00;;;;5030427;28;20211;-81
2022/01/19 07:54:03;;;;;;;22.45;11.90;;;;;9.90;102374.00;;;;5017357;28;20212;-82
2022/01/19 07:56:32;;;;;;;20.48;11.85;;;;;9.90;102361.00;;;;5028894;28;20193;-81
2022/01/19 07:58:59;;;;;;;18.33;10.95;;;;;9.90;102366.00;;;;5012975;28;20181;-81
2022/01/19 08:01:30;;;;;;;18.15;11.05;;;;;9.90;102368.00;;;;5012924;28;20200;-81
2022/01/19 08:03:57;;;;;;;22.92;11.38;;;;;10.00;102374.00;;;;5018005;28;20211;-82
2022/01/19 08:06:25;;;;;;;22.08;11.75;;;;;10.00;102373.00;;;;5010292;28;20290;-82
2022/01/19 08:08:52;;;;;;;23.85;12.68;;;;;10.00;102367.00;;;;5016420;28;20709;-83
2022/01/19 08:11:19;;;;;;;23.98;12.30;;;;;10.00;102367.00;;;;5028771;28;20204;-83
2022/01/19 08:13:48;;;;;;;23.33;11.98;;;;;10.00;102363.00;;;;5020602;28;20203;-82
2022/01/19 08:16:16;;;;;;;18.80;11.98;;;;;10.10;102357.00;;;;5020025;28;20220;-83
2022/01/19 08:18:43;;;;;;;24.55;12.52;;;;;10.10;102358.00;;;;5022483;28;20204;-84
2022/01/19 08:21:10;;;;;;;21.73;13.25;;;;;10.10;102352.00;;;;5019412;28;20244;-83
2022/01/19 08:23:38;;;;;;;20.42;12.15;;;;;10.10;102349.00;;;;5018241;28;20204;-83
2022/01/19 08:26:05;;;;;;;20.80;11.48;;;;;10.20;102346.00;;;;5022628;28;20200;-83
2022/01/19 08:28:32;;;;;;;22.65;12.65;;;;;10.20;102340.00;;;;5029390;28;20224;-85
2022/01/19 08:31:01;;;;;;;24.50;12.73;;;;;10.20;102333.00;;;;5019593;28;20551;-83
2022/01/19 08:33:28;;;;;;;18.65;10.95;;;;;10.20;102332.00;;;;5010259;28;20564;-83
2022/01/19 08:35:56;;;;;;;21.15;11.82;;;;;10.20;102332.00;;;;5020798;28;20490;-85
2022/01/19 08:38:23;;;;;;;21.10;11.55;;;;;10.20;102333.00;;;;5021634;28;20212;-83
2022/01/19 08:40:51;;;;;;;22.83;11.35;;;;;10.20;102332.00;;;;5011209;28;20196;-84
2022/01/19 08:43:18;;;;;;;18.80;10.82;;;;;10.20;102334.00;;;;5017375;28;21220;-85
2022/01/19 08:45:46;;;;;;;24.65;12.77;;;;;10.20;102328.00;;;;5019268;28;20224;-83
2022/01/19 08:48:14;;;;;;;22.25;11.52;;;;;10.20;102329.00;;;;5017522;28;20589;-83
2022/01/19 08:50:42;;;;;;;21.75;11.30;;;;;10.20;102331.00;;;;5021322;28;20200;-83
2022/01/19 08:53:09;;;;;;;19.48;11.40;;;;;10.20;102319.00;;;;5019127;28;20207;-83
2022/01/19 08:55:36;;;;;;;19.65;11.68;;;;;10.20;102316.00;;;;5021505;28;20200;-81
2022/01/19 08:58:05;;;;;;;22.80;11.80;;;;;10.20;102310.00;;;;5029134;28;20207;-83
2022/01/19 09:00:32;;;;;;;22.23;11.25;;;;;10.20;102310.00;;;;5018994;28;20208;-82
2022/01/19 09:03:00;;;;;;;19.58;11.73;;;;;10.20;102310.00;;;;5009403;28;20204;-83
2022/01/19 09:05:29;;;;;;;19.10;12.23;;;;;10.20;102300.00;;;;5010027;28;20201;-83
2022/01/19 09:07:57;;;;;;;18.60;10.90;;;;;10.20;102298.00;;;;5025815;28;20244;-82
2022/01/19 09:10:25;;;;;;;20.95;11.10;;;;;10.20;102294.00;;;;5028600;28;20196;-82
2022/01/19 09:12:52;;;;;;;19.95;11.77;;;;;10.20;102292.00;;;;5014215;28;20213;-83
2022/01/19 09:15:23;;;;;;;21.80;12.23;;;;;10.20;102284.00;;;;5017688;28;20217;-83
2022/01/19 09:17:52;;;;;;;20.92;11.32;;;;;10.20;102285.00;;;;5008613;28;20197;-85
2022/01/19 09:20:20;;;;;;;20.55;12.68;;;;;10.20;102282.00;;;;5015828;28;20232;-85
2022/01/19 09:22:50;;;;;;;21.88;11.82;;;;;10.20;102280.00;;;;5021159;28;20200;-85
2022/01/19 09:25:17;;;;;;;21.20;11.38;;;;;10.20;102283.00;;;;5015570;28;20197;-84
2022/01/19 09:27:45;;;;;;;22.35;11.52;;;;;10.20;102280.00;;;;5012042;28;20205;-86
2022/01/19 09:30:15;;;;;;;20.08;11.65;;;;;10.20;102273.00;;;;5020596;28;20790;-82
2022/01/19 09:32:44;;;;;;;17.25;10.23;;;;;10.20;102269.00;;;;5008684;28;20189;-83
2022/01/19 09:35:22;;;;;;;17.85;10.43;;;;;10.30;102262.00;;;;5014194;28;20663;-83
2022/01/19 09:37:51;;;;;;;18.35;11.32;;;;;10.20;102244.00;;;;5008137;28;20215;-83
2022/01/19 09:40:19;;;;;;;18.58;11.20;;;;;10.20;102243.00;;;;5014190;28;20206;-84
2022/01/19 09:42:47;;;;;;;19.30;11.30;;;;;10.30;102247.00;;;;5009872;28;20197;-84
2022/01/19 09:45:14;;;;;;;22.55;11.02;;;;;10.30;102237.00;;;;5016112;28;20705;-84
2022/01/19 09:47:42;;;;;;;19.95;10.70;;;;;10.30;102236.00;;;;5014220;28;20211;-84
2022/01/19 09:50:09;;;;;;;17.25;10.43;;;;;10.30;102241.00;;;;5019630;28;20220;-84
2022/01/19 09:52:39;;;;;;;18.00;10.88;;;;;10.30;102243.00;;;;5012674;28;20197;-83
2022/01/19 09:55:09;;;;;;;21.45;11.82;;;;;10.30;102226.00;;;;5015549;28;20223;-84
2022/01/19 09:57:36;;;;;;;19.67;10.35;;;;;10.40;102222.00;;;;5021957;28;20204;-84
2022/01/19 10:00:05;;;;;;;18.80;11.43;;;;;10.40;102218.00;;;;5022421;28;20196;-84
2022/01/19 10:02:33;;;;;;;17.95;10.75;;;;;10.40;102222.00;;;;5011035;28;20566;-84
2022/01/19 10:05:07;;;;;;;16.05;9.82;;;;;10.40;102214.00;;;;5011070;28;20241;-84
2022/01/19 10:07:34;;;;;;;18.30;10.68;;;;;10.40;102221.00;;;;5018895;28;20223;-85
2022/01/19 10:10:04;;;;;;;15.52;9.40;;;;;10.50;102221.00;;;;5019276;28;20236;-84
2022/01/19 10:18:09;;;;;;;16.20;9.80;;;;;10.50;102229.00;;;;5023029;28;20235;-82
2022/01/19 10:20:36;;;;;;;18.05;10.85;;;;;10.50;102223.00;;;;5015004;28;20232;-82
2022/01/19 10:23:04;;;;;;;15.68;9.90;;;;;10.50;102228.00;;;;5026479;28;20188;-82
2022/01/19 10:25:49;;;;;;;16.83;9.98;;;;;10.50;102225.00;;;;5018424;28;20197;-82
2022/01/19 10:28:18;;;;;;;16.17;9.77;;;;;10.60;102212.00;;;;5023819;28;20227;-82
2022/01/19 10:30:45;;;;;;;17.73;11.10;;;;;10.50;102214.00;;;;5011156;28;20211;-83
2022/01/19 10:33:18;;;;;;;19.75;11.88;;;;;10.50;102211.00;;;;5012148;28;20200;-82
2022/01/19 10:35:47;;;;;;;17.52;11.05;;;;;10.60;102214.00;;;;5014748;28;20228;-82
2022/01/19 10:38:18;;;;;;;18.40;11.13;;;;;10.60;102201.00;;;;5013150;28;20220;-82
2022/01/19 10:41:05;;;;;;;19.75;10.82;;;;;10.50;102200.00;;;;5010065;28;21426;-82
2022/01/19 10:43:37;;;;;;;16.65;10.00;;;;;10.70;102200.00;;;;5015337;28;20334;-82
2022/01/19 10:46:27;;;;;;;17.30;10.82;;;;;10.60;102190.00;;;;5023175;28;20204;-82
2022/01/19 10:49:03;;;;;;;19.70;11.13;;;;;10.70;102186.00;;;;5025828;28;20239;-82
2022/01/19 10:51:33;;;;;;;18.10;11.10;;;;;10.70;102181.00;;;;5013766;28;20196;-86
2022/01/19 10:54:13;;;;;;;17.13;10.55;;;;;10.70;102177.00;;;;5020268;28;20544;-86
2022/01/19 10:56:42;;;;;;;14.77;10.32;;;;;10.80;102173.00;;;;5011500;28;20612;-86
2022/01/19 10:59:12;;;;;;;15.65;9.77;;;;;10.80;102169.00;;;;5007440;28;20205;-85
2022/01/19 11:01:46;;;;;;;16.88;10.50;;;;;10.80;102166.00;;;;5024949;28;20196;-85
2022/01/19 11:04:25;;;;;;;15.23;9.10;;;;;10.80;102157.00;;;;5028383;28;20212;-85
2022/01/19 11:06:58;;;;;;;17.23;11.15;;;;;10.80;102156.00;;;;5017976;28;20204;-85
2022/01/19 11:09:28;;;;;;;16.02;10.63;;;;;10.90;102153.00;;;;5017395;28;20656;-84
2022/01/19 11:11:58;;;;;;;17.25;10.38;;;;;10.80;102150.00;;;;5018072;28;20601;-85
2022/01/19 11:14:27;;;;;;;16.13;9.80;;;;;10.90;102141.00;;;;5021891;28;20201;-87
2022/01/19 11:16:55;;;;;;;16.60;10.45;;;;;10.90;102138.00;;;;5014354;28;20208;-84
2022/01/19 11:19:23;;;;;;;13.38;9.82;;;;;10.90;102132.00;;;;5018626;28;20201;-84
2022/01/19 11:22:27;;;;;;;15.85;10.63;;;;;10.80;102126.00;;;;5016470;28;20197;-83
2022/01/19 11:25:05;;;;;;;20.73;11.02;;;;;10.80;102113.00;;;;5008898;28;20193;-83
2022/01/19 11:27:40;;;;;;;16.00;10.80;;;;;10.80;102116.00;;;;5019986;28;20188;-82
2022/01/19 11:30:19;;;;;;;17.08;10.60;;;;;10.80;102120.00;;;;5019815;28;20242;-83
2022/01/19 11:33:14;;;;;;;15.70;9.52;;;;;10.80;102101.00;;;;5014207;28;20192;-82
2022/01/19 11:35:44;;;;;;;16.02;11.13;;;;;10.90;102098.00;;;;5024926;28;20192;-83
2022/01/19 11:38:36;;;;;;;17.08;10.73;;;;;10.80;102085.00;;;;5029807;28;20581;-83
2022/01/19 11:41:25;;;;;;;16.38;9.65;;;;;10.90;102071.00;;;;5015777;28;20201;-83
2022/01/19 11:43:54;;;;;;;16.67;9.88;;;;;11.00;102072.00;;;;5019905;28;20589;-82
2022/01/19 11:46:32;;;;;;;17.42;10.43;;;;;11.00;102071.00;;;;5023255;28;20216;-83
2022/01/19 11:49:00;;;;;;;18.13;11.23;;;;;11.10;102067.00;;;;5011200;28;20224;-86
2022/01/19 11:51:31;;;;;;;16.42;10.40;;;;;11.10;102060.00;;;;5012478;28;20675;-84
2022/01/19 11:54:10;;;;;;;18.40;10.23;;;;;11.20;102053.00;;;;5023291;28;20195;-84
2022/01/19 11:57:16;;;;;;;17.13;10.80;;;;;11.20;102052.00;;;;5017713;28;20270;-84
2022/01/19 12:00:12;;;;;;;17.00;11.15;;;;;11.30;102054.00;;;;5015182;28;20553;-84
2022/01/19 12:02:43;;;;;;;17.67;10.73;;;;;11.40;102046.00;;;;5020902;28;20199;-84
2022/01/19 12:05:26;;;;;;;15.23;10.15;;;;;11.40;102038.00;;;;5029003;28;20236;-84
2022/01/19 12:07:57;;;;;;;14.10;10.30;;;;;11.50;102041.00;;;;5021402;28;20199;-83
2022/01/19 12:10:43;;;;;;;13.80;10.55;;;;;11.40;102035.00;;;;5014304;28;20220;-84
2022/01/19 12:13:40;;;;;;;15.45;10.38;;;;;11.50;102032.00;;;;5013532;28;20193;-84
2022/01/19 12:16:13;;;;;;;17.85;11.23;;;;;11.60;102027.00;;;;5013728;28;20217;-84
2022/01/19 12:18:46;;;;;;;14.95;10.40;;;;;11.60;102013.00;;;;5013099;28;20212;-84
2022/01/19 12:21:15;;;;;;;16.17;11.45;;;;;11.70;102015.00;;;;5010382;28;20231;-85
2022/01/19 12:23:44;;;;;;;18.10;10.82;;;;;11.70;102014.00;;;;5009524;28;20197;-84
2022/01/19 12:26:12;;;;;;;17.90;11.43;;;;;11.70;102026.00;;;;5019875;28;20201;-84
2022/01/19 12:28:41;;;;;;;15.13;10.55;;;;;11.70;102007.00;;;;5020354;28;20196;-84
2022/01/19 12:31:30;;;;;;;16.85;10.65;;;;;11.70;102004.00;;;;5029226;28;20192;-84
2022/01/19 12:34:18;;;;;;;17.58;11.00;;;;;11.70;101988.00;;;;5009722;28;20208;-84
2022/01/19 12:36:48;;;;;;;17.17;11.18;;;;;11.80;101986.00;;;;5010208;28;20232;-84
2022/01/19 12:39:38;;;;;;;16.63;11.55;;;;;11.70;101978.00;;;;5010390;28;20195;-84
2022/01/19 12:42:13;;;;;;;17.33;11.07;;;;;11.90;101980.00;;;;5012660;28;20207;-83
2022/01/19 12:44:47;;;;;;;14.75;10.63;;;;;11.90;101967.00;;;;5022762;28;20200;-84
2022/01/19 12:47:43;;;;;;;19.23;12.50;;;;;11.80;101971.00;;;;5012451;28;20685;-83
2022/01/19 12:50:41;;;;;;;16.27;10.98;;;;;11.90;101976.00;;;;5020987;28;20592;-83
2022/01/19 12:53:21;;;;;;;19.38;11.95;;;;;11.90;101962.00;;;;5018175;28;20215;-84
2022/01/19 12:55:52;;;;;;;16.15;11.35;;;;;11.90;101957.00;;;;5030097;28;20214;-83
2022/01/19 12:58:24;;;;;;;18.27;12.50;;;;;12.00;101955.00;;;;5028412;28;20594;-83
2022/01/19 13:00:53;;;;;;;19.52;11.68;;;;;12.00;101955.00;;;;5014678;28;20542;-81
2022/01/19 13:03:33;;;;;;;17.02;11.70;;;;;12.00;101948.00;;;;5015654;28;20205;-83
2022/01/19 13:06:04;;;;;;;17.48;10.85;;;;;12.00;101949.00;;;;5017599;28;20199;-84
2022/01/19 13:08:36;;;;;;;26.45;11.98;;;;;12.10;101944.00;;;;5024771;28;20254;-84
2022/01/19 13:11:18;;;;;;;21.30;12.75;;;;;12.10;101943.00;;;;5019698;28;20249;-84
2022/01/19 13:13:52;;;;;;;20.35;12.25;;;;;12.10;101923.00;;;;5028176;28;20204;-84
2022/01/19 13:16:37;;;;;;;19.80;11.45;;;;;12.10;101925.00;;;;5026641;28;20278;-84
2022/01/19 13:19:07;;;;;;;16.67;10.50;;;;;12.20;101920.00;;;;5023956;28;20200;-82
2022/01/19 13:21:37;;;;;;;16.75;11.25;;;;;12.10;101906.00;;;;5022270;28;20233;-84
2022/01/19 13:24:10;;;;;;;16.88;10.90;;;;;12.20;101897.00;;;;5020324;28;20188;-82